Flight Track Log - Related Links

Times and Time Zones

All times are in EDT time to prevent confusion due to time zone crossing. See the N814GV flight status page for this flight to view local times or setup timezone preferences in your user account.

Time Position Orientation Groundspeed Altitude Reporting Facility
EDT Latitude Longitude Course Direction KTS MPH feet Rate Location/Type
Sun 04:08:21 PM 61.7167 -149.7833 317° Northwest 130 150 7,100  Level Anchorage Center
Sun 04:09:21 PM 61.7500 -149.8500 317° Northwest 140 161 7,700 600 Climbing Anchorage Center
Sun 04:10:21 PM 61.7667 -149.9167 298° West 150 173 8,300 550 Climbing Anchorage Center
Sun 04:11:21 PM 61.8000 -149.9833 317° Northwest 150 173 8,800 550 Climbing Anchorage Center
Sun 04:12:21 PM 61.8333 -150.0333 325° Northwest 130 150 9,400 600 Climbing Anchorage Center
Sun 04:13:21 PM 61.8667 -150.1000 317° Northwest 150 173 10,000 545 Climbing Anchorage Center
Sun 04:14:22 PM 61.8833 -150.1667 298° West 140 161 10,500 500 Climbing Anchorage Center
Sun 04:15:21 PM 61.9167 -150.2167 325° Northwest 140 161 11,000 400 Climbing Anchorage Center
Sun 04:16:22 PM 61.9500 -150.2833 317° Northwest 140 161 11,300 347 Climbing Anchorage Center
Sun 04:17:22 PM 61.9833 -150.3333 325° Northwest 150 173 11,700 350 Climbing Anchorage Center
Sun 04:18:22 PM 62.0000 -150.4000 298° West 150 173 12,000 350 Climbing Anchorage Center
Sun 04:19:22 PM 62.0333 -150.4500 325° Northwest 150 173 12,400 350 Climbing Anchorage Center
Sun 04:20:22 PM 62.0667 -150.5167 317° Northwest 150 173 12,700 300 Climbing Anchorage Center
Sun 04:21:22 PM 62.1000 -150.5833 317° Northwest 150 173 13,000 300 Climbing Anchorage Center
Sun 04:22:22 PM 62.1333 -150.6500 317° Northwest 150 173 13,300 300 Climbing Anchorage Center
Sun 04:23:22 PM 62.1500 -150.7000 306° West 150 173 13,600 300 Climbing Anchorage Center
Sun 04:24:22 PM 62.1833 -150.7667 317° Northwest 160 184 13,900 300 Climbing Anchorage Center
Sun 04:25:22 PM 62.2167 -150.8333 317° Northwest 160 184 14,200 248 Climbing Anchorage Center
Sun 04:26:23 PM 62.2500 -150.9000 317° Northwest 160 184 14,400 248 Climbing Anchorage Center
Sun 04:27:23 PM 62.2833 -150.9667 317° Northwest 160 184 14,700 150 Climbing Anchorage Center
Sun 04:28:23 PM 62.3167 -151.0333 317° Northwest 170 196 14,700  Level Anchorage Center
Sun 04:29:23 PM 62.3500 -151.1167 311° West 190 219 14,700  Level Anchorage Center
Sun 04:30:23 PM 62.4000 -151.2000 322° Northwest 190 219 14,700  Level Anchorage Center
Sun 04:31:23 PM 62.4333 -151.2667 317° Northwest 190 219 14,700  Level Anchorage Center
Sun 04:32:23 PM 62.4667 -151.3500 311° West 190 219 14,700  Level Anchorage Center
Sun 04:33:23 PM 62.5167 -151.4333 322° Northwest 190 219 14,700 -50 Level Anchorage Center
Sun 04:34:23 PM 62.5500 -151.5000 317° Northwest 190 219 14,600 -99 Descending Anchorage Center
Sun 04:35:24 PM 62.6000 -151.5833 323° Northwest 190 219 14,500 -50 Descending Anchorage Center
Sun 04:36:23 PM 62.6333 -151.6667 311° West 190 219 14,500  Level Anchorage Center
Sun 04:37:24 PM 62.6667 -151.7333 317° Northwest 190 219 14,500  Level Anchorage Center
Sun 04:38:24 PM 62.7167 -151.8167 323° Northwest 190 219 14,500  Level Anchorage Center
Sun 04:39:24 PM 62.7500 -151.8833 318° Northwest 180 207 14,500  Level Anchorage Center
Sun 04:40:24 PM 62.7833 -151.9667 311° West 190 219 14,500  Level Anchorage Center
Sun 04:41:24 PM 62.8167 -152.0500 311° West 180 207 14,500 50 Level Anchorage Center
Sun 04:42:24 PM 62.8667 -152.1167 329° Northwest 180 207 14,600 50 Climbing Anchorage Center
Sun 04:43:24 PM 62.9000 -152.2000 311° West 180 207 14,600  Level Anchorage Center
Sun 04:44:24 PM 62.9333 -152.2833 311° West 180 207 14,600  Level Anchorage Center
Sun 04:45:24 PM 62.9667 -152.3667 311° West 180 207 14,600  Level Anchorage Center
Sun 04:46:25 PM 63.0000 -152.4333 318° Northwest 180 207 14,600  Level Anchorage Center
Sun 04:47:25 PM 63.0500 -152.5167 323° Northwest 180 207 14,600  Level Anchorage Center
Sun 04:48:25 PM 63.0833 -152.6000 311° West 180 207 14,600  Level Anchorage Center
Sun 04:49:25 PM 63.1167 -152.6833 312° West 180 207 14,600  Level Anchorage Center
Sun 04:50:25 PM 63.1500 -152.7500 318° Northwest 180 207 14,600  Level Anchorage Center
Sun 04:51:25 PM 63.1833 -152.8333 312° West 180 207 14,600  Level Anchorage Center
Sun 04:52:25 PM 63.2333 -152.9167 323° Northwest 180 207 14,600  Level Anchorage Center
Sun 04:53:25 PM 63.2667 -152.9833 318° Northwest 180 207 14,600  Level Anchorage Center
Sun 04:54:25 PM 63.3000 -153.0667 312° West 180 207 14,600  Level Anchorage Center
Sun 04:55:25 PM 63.3333 -153.1333 318° Northwest 180 207 14,600  Level Anchorage Center
Sun 04:56:26 PM 63.3833 -153.2000 329° Northwest 180 207 14,600  Level Anchorage Center
Sun 04:57:26 PM 63.4167 -153.2833 312° West 180 207 14,600  Level Anchorage Center
Sun 04:58:26 PM 63.4500 -153.3667 312° West 180 207 14,600  Level Anchorage Center
Sun 04:59:26 PM 63.4833 -153.4333 318° Northwest 180 207 14,600  Level Anchorage Center
Sun 05:00:26 PM 63.5333 -153.5167 323° Northwest 180 207 14,600  Level Anchorage Center
Sun 05:01:26 PM 63.5667 -153.5833 318° Northwest 170 196 14,600  Level Anchorage Center
Sun 05:02:26 PM 63.6000 -153.6667 312° West 170 196 14,600  Level Anchorage Center
Sun 05:03:26 PM 63.6333 -153.7333 318° Northwest 170 196 14,600  Level Anchorage Center
Sun 05:04:26 PM 63.6667 -153.8167 312° West 170 196 14,600  Level Anchorage Center
Sun 05:05:27 PM 63.7000 -153.8833 318° Northwest 170 196 14,600  Level Anchorage Center
Sun 05:06:26 PM 63.7333 -153.9667 312° West 170 196 14,600  Level Anchorage Center
Sun 05:07:27 PM 63.7667 -154.0333 319° Northwest 170 196 14,600  Level Anchorage Center
Sun 05:08:27 PM 63.8000 -154.1167 312° West 170 196 14,600  Level Anchorage Center
Sun 05:09:27 PM 63.8333 -154.2000 312° West 170 196 14,600  Level Anchorage Center
Sun 05:10:27 PM 63.8667 -154.2667 319° Northwest 170 196 14,600  Level Anchorage Center
Sun 05:11:27 PM 63.9000 -154.3500 312° West 170 196 14,600  Level Anchorage Center
Sun 05:12:27 PM 63.9333 -154.4333 312° West 180 207 14,600  Level Anchorage Center
Sun 05:13:27 PM 63.9667 -154.5000 319° Northwest 180 207 14,600  Level Anchorage Center
Sun 05:14:27 PM 64.0000 -154.5833 312° West 180 207 14,600  Level Anchorage Center
Sun 05:15:27 PM 64.0333 -154.6667 312° West 180 207 14,600  Level Anchorage Center
Sun 05:16:28 PM 64.0667 -154.7500 312° West 180 207 14,600  Level Anchorage Center
Sun 05:17:28 PM 64.1000 -154.8333 313° West 180 207 14,600  Level Anchorage Center
Sun 05:18:28 PM 64.1333 -154.9167 313° West 170 196 14,600  Level Anchorage Center
Sun 05:19:28 PM 64.1667 -154.9833 319° Northwest 180 207 14,600  Level Anchorage Center
Sun 05:20:28 PM 64.2000 -155.0667 313° West 180 207 14,600  Level Anchorage Center
Sun 05:21:28 PM 64.2500 -155.1500 324° Northwest 180 207 14,600  Level Anchorage Center
Sun 05:22:28 PM 64.2833 -155.2333 313° West 180 207 14,600  Level Anchorage Center
Sun 05:23:28 PM 64.3167 -155.3167 313° West 180 207 14,600  Level Anchorage Center
Sun 05:25:28 PM 64.3833 -155.4833 313° West 180 207 14,600  Level Anchorage Center
Sun 05:26:29 PM 64.4167 -155.5667 313° West 180 207 14,600  Level Anchorage Center
Sun 05:27:29 PM 64.4500 -155.6667 308° West 180 207 14,600  Level Anchorage Center
Sun 05:28:29 PM 64.4833 -155.7500 313° West 180 207 14,600  Level Anchorage Center
Sun 05:29:29 PM 64.5167 -155.8333 313° West 180 207 14,600  Level Anchorage Center
Sun 05:30:29 PM 64.5500 -155.9167 313° West 180 207 14,600  Level Anchorage Center
Sun 05:31:29 PM 64.5833 -156.0000 313° West 180 207 14,600  Level Anchorage Center
Sun 05:32:29 PM 64.6167 -156.0833 313° West 180 207 14,600  Level Anchorage Center
Sun 05:33:30 PM 64.6500 -156.1500 319° Northwest 180 207 14,600  Level Anchorage Center
Sun 05:34:30 PM 64.6833 -156.2500 308° West 180 207 14,600  Level Anchorage Center
Sun 05:35:30 PM 64.7167 -156.3333 313° West 180 207 14,600  Level Anchorage Center
Sun 05:36:30 PM 64.7667 -156.4333 320° Northwest 200 230 14,600  Level Anchorage Center
Sun 05:37:30 PM 64.8000 -156.5167 313° West 180 207 14,600  Level Anchorage Center
Sun 05:38:30 PM 64.8333 -156.6000 313° West 180 207 14,600  Level Anchorage Center
Sun 05:39:30 PM 64.8667 -156.6833 313° West 170 196 14,600  Level Anchorage Center
Sun 05:40:30 PM 64.9000 -156.7833 308° West 180 207 14,600  Level Anchorage Center
Sun 05:41:30 PM 64.9333 -156.8667 313° West 180 207 14,600  Level Anchorage Center
Sun 05:42:31 PM 64.9667 -156.9500 313° West 170 196 14,600  Level Anchorage Center
Sun 05:43:31 PM 64.9833 -157.0333 295° West 170 196 14,600  Level Anchorage Center
Sun 05:44:31 PM 65.0333 -157.1167 325° Northwest 180 207 14,600  Level Anchorage Center
Sun 05:45:31 PM 65.0500 -157.2000 295° West 170 196 14,600  Level Anchorage Center
Sun 05:46:31 PM 65.0833 -157.2667 320° Northwest 160 184 14,600  Level Anchorage Center
Sun 05:47:31 PM 65.1167 -157.3667 308° West 180 207 14,600 -100 Level Anchorage Center
Sun 05:48:31 PM 65.1500 -157.4500 314° West 160 184 14,400 -350 Descending Anchorage Center
Sun 05:49:31 PM 65.1833 -157.5500 308° West 200 230 13,900 -496 Descending Anchorage Center
Sun 05:50:32 PM 65.2333 -157.6333 325° Northwest 200 230 13,400 -496 Descending Anchorage Center
Sun 05:51:32 PM 65.2667 -157.7333 309° West 190 219 12,900 -500 Descending Anchorage Center
Sun 05:52:32 PM 65.3000 -157.8333 309° West 200 230 12,400 -450 Descending Anchorage Center
Sun 05:53:32 PM 65.3333 -157.9333 309° West 190 219 12,000 -200 Descending Anchorage Center
Sun 05:54:32 PM 65.3667 -158.0333 309° West 180 207 12,000  Level Anchorage Center
Sun 05:55:32 PM 65.4000 -158.1167 314° West 180 207 12,000  Level Anchorage Center
Sun 05:56:32 PM 65.4500 -158.2167 320° Northwest 210 242 12,000  Level Anchorage Center
Sun 05:57:32 PM 65.4667 -158.3000 296° West 170 196 12,000  Level Anchorage Center
Sun 05:58:32 PM 65.5000 -158.4000 309° West 180 207 12,000  Level Anchorage Center
Sun 05:59:32 PM 65.5333 -158.4833 314° West 170 196 12,000  Level Anchorage Center
Sun 06:00:32 PM 65.5667 -158.5833 309° West 170 196 12,000  Level Anchorage Center
Sun 06:01:32 PM 65.6000 -158.6667 314° West 180 207 12,000  Level Anchorage Center
Sun 06:02:33 PM 65.6167 -158.7500 296° West 170 196 12,000  Level Anchorage Center
Sun 06:03:32 PM 65.6500 -158.8500 309° West 190 219 12,000  Level Anchorage Center
Sun 06:04:32 PM 65.6833 -158.9500 309° West 170 196 12,000  Level Anchorage Center
Sun 06:05:33 PM 65.7167 -159.0500 309° West 170 196 12,000  Level Anchorage Center
Sun 06:06:33 PM 65.7500 -159.1333 314° West 170 196 12,000  Level Anchorage Center
Sun 06:07:33 PM 65.7833 -159.2333 309° West 180 207 12,000  Level Anchorage Center
Sun 06:08:33 PM 65.8167 -159.3333 309° West 180 207 12,000  Level Anchorage Center
Sun 06:09:33 PM 65.8500 -159.4167 314° West 170 196 12,000  Level Anchorage Center
Sun 06:10:33 PM 65.8667 -159.5000 296° West 180 207 12,000  Level Anchorage Center
Sun 06:11:33 PM 65.9000 -159.6000 309° West 180 207 12,000  Level Anchorage Center
Sun 06:12:33 PM 65.9333 -159.7000 309° West 180 207 12,000  Level Anchorage Center
Sun 06:13:33 PM 65.9667 -159.7833 315° West 170 196 12,000  Level Anchorage Center
Sun 06:14:33 PM 66.0000 -159.8833 309° West 170 196 12,000 -50 Level Anchorage Center
Sun 06:15:34 PM 66.0333 -159.9667 315° West 180 207 11,900 -200 Descending Anchorage Center
Sun 06:16:33 PM 66.0667 -160.0667 309° West 190 219 11,600 -350 Descending Anchorage Center
Sun 06:17:34 PM 66.1000 -160.1667 309° West 190 219 11,200 -450 Descending Anchorage Center
Sun 06:18:33 PM 66.1333 -160.2667 310° West 190 219 10,700 -500 Descending Anchorage Center
Sun 06:19:34 PM 66.1667 -160.3667 310° West 200 230 10,200 -496 Descending Anchorage Center
Sun 06:20:34 PM 66.2167 -160.4667 321° Northwest 200 230 9,700 -500 Descending Anchorage Center
Sun 06:21:34 PM 66.2500 -160.5667 310° West 190 219 9,200 -500 Descending Anchorage Center
Sun 06:22:34 PM 66.2833 -160.6667 310° West 190 219 8,700 -550 Descending Anchorage Center
Sun 06:23:34 PM 66.3167 -160.7667 310° West 190 219 8,100 -600 Descending Anchorage Center
Sun 06:24:34 PM 66.3500 -160.8833 305° West 200 230 7,500 -650 Descending Anchorage Center
Sun 06:25:34 PM 66.3833 -160.9833 310° West 190 219 6,800 -650 Descending Anchorage Center
Sun 06:26:34 PM 66.4167 -161.0833 310° West 190 219 6,200 -550 Descending Anchorage Center
Sun 06:27:34 PM 66.4500 -161.1833 310° West 190 219 5,700 -550 Descending Anchorage Center
Sun 06:28:34 PM 66.4833 -161.3000 306° West 190 219 5,100 -550 Descending Anchorage Center
Sun 06:29:34 PM 66.5167 -161.4000 310° West 190 219 4,600 -500 Descending Anchorage Center
Sun 06:30:34 PM 66.5500 -161.5000 310° West 190 219 4,100 -298 Descending Anchorage Center
Sun 06:31:35 PM 66.5833 -161.6000 310° West 170 196 4,000 -50 Descending Anchorage Center
Sun 06:32:34 PM 66.6167 -161.6833 315° West 170 196 4,000  Level Anchorage Center
Sun 06:33:35 PM 66.6333 -161.7667 297° West 170 196 4,000 -298 Level Anchorage Center
Sun 06:34:35 PM 66.6667 -161.8667 310° West 180 207 3,400 -550 Descending Anchorage Center
Sun 06:35:35 PM 66.7000 -161.9667 310° West 180 207 2,900 -600 Descending Anchorage Center
Sun 06:36:35 PM 66.7333 -162.0667 310° West 180 207 2,200 -450 Descending Anchorage Center
Sun 06:37:35 PM 66.7667 -162.1667 310° West 170 196 2,000 -200 Descending Anchorage Center
Sun 06:38:35 PM 66.8000 -162.2500 315° West 170 196 1,800 -350 Descending Anchorage Center
Sun 06:39:35 PM 66.8167 -162.3500 293° West 180 207 1,300 -450 Descending Anchorage Center
Sun 06:40:35 PM 66.8500 -162.4333 316° Northwest 170 196 900 -400 Descending Anchorage Center
Sun 06:43:00 PM 66.8833 -162.5833 307° West  Level FlightAware Approximate
Sun 06:50:00 PM 66.8847 -162.5985 307° West  Level Estimated
Sun 06:51:00 PM 66.8833 -162.5833 307° West  Level FlightAware Approximate
Sun 06:52:00 PM 66.8847 -162.5985 307° West  Level Estimated
Sun 06:53:00 PM 66.8833 -162.5833 307° West  Level FlightAware Approximate
Sun 06:54:00 PM 66.8847 -162.5985 307° West  Level Estimated
Sun 06:55:00 PM 66.8833 -162.5833 307° West  Level FlightAware Approximate
Sun 06:56:00 PM 66.8847 -162.5985 307° West  Level Estimated
Sun 06:57:00 PM 66.8833 -162.5833 307° West  Level FlightAware Approximate
Sun 06:58:00 PM 66.8847 -162.5985 307° West  Level Estimated
Sun 06:59:00 PM 66.8833 -162.5833 307° West  Level FlightAware Approximate
Sun 07:00:00 PM 66.8847 -162.5985 307° West  Level Estimated
Sun 07:01:00 PM 66.8833 -162.5833 307° West  Level FlightAware Approximate
Sun 07:02:00 PM 66.8847 -162.5985 307° West  Level Estimated
Sun 07:03:00 PM 66.8833 -162.5833 307° West  Level FlightAware Approximate

Login

Don't have an account? Register now (free) for customized features, flight alerts, and more!